createdAt,value
2018-10-03T03:14:28.349Z,1010.97
2018-10-03T03:15:28.267Z,1010.95
2018-10-03T03:16:28.450Z,1010.92
2018-10-03T03:17:28.282Z,1010.92
2018-10-03T03:18:28.218Z,1010.95
2018-10-03T03:19:28.211Z,1010.90
2018-10-03T03:20:28.206Z,1010.84
2018-10-03T03:21:28.285Z,1010.86
2018-10-03T03:22:28.204Z,1010.82
2018-10-03T03:23:28.192Z,1010.87
2018-10-03T03:24:28.199Z,1010.84
2018-10-03T03:25:28.200Z,1010.84
2018-10-03T03:26:28.173Z,1010.87
2018-10-03T03:27:28.168Z,1010.89
2018-10-03T03:28:28.162Z,1010.86
2018-10-03T03:29:28.182Z,1010.88
2018-10-03T03:30:28.142Z,1010.89
2018-10-03T03:31:28.151Z,1010.86
2018-10-03T03:32:28.149Z,1010.83
2018-10-03T03:33:28.151Z,1010.88
2018-10-03T03:34:28.159Z,1010.82
2018-10-03T03:35:28.167Z,1010.81
2018-10-03T03:36:28.131Z,1010.84
2018-10-03T03:37:28.122Z,1010.77
2018-10-03T03:38:28.120Z,1010.81
2018-10-03T03:39:28.114Z,1010.86
2018-10-03T03:40:28.119Z,1010.82
2018-10-03T03:41:28.091Z,1010.85
2018-10-03T03:42:28.085Z,1010.87
2018-10-03T03:43:28.130Z,1010.86
2018-10-03T03:44:28.082Z,1010.87
2018-10-03T03:45:28.121Z,1010.90
2018-10-03T03:46:28.101Z,1010.91
2018-10-03T03:47:28.098Z,1010.92
2018-10-03T03:48:28.062Z,1010.91
2018-10-03T03:49:28.062Z,1010.96
2018-10-03T03:50:28.067Z,1010.87
2018-10-03T03:51:28.039Z,1010.89
2018-10-03T03:52:28.037Z,1010.86
2018-10-03T03:53:28.078Z,1010.85
2018-10-03T03:54:28.029Z,1010.83
2018-10-03T03:55:28.028Z,1010.83
2018-10-03T03:56:28.033Z,1010.82
2018-10-03T03:57:28.021Z,1010.80
2018-10-03T03:58:28.053Z,1010.84
2018-10-03T03:59:28.032Z,1010.85
2018-10-03T04:00:28.044Z,1010.82
2018-10-03T04:01:28.002Z,1010.81
2018-10-03T04:02:28.030Z,1010.82
2018-10-03T04:03:28.009Z,1010.82
2018-10-03T04:04:28.013Z,1010.81
2018-10-03T04:05:27.979Z,1010.84
2018-10-03T04:06:27.994Z,1010.87
2018-10-03T04:07:27.985Z,1010.87
2018-10-03T04:08:27.980Z,1010.94
2018-10-03T04:09:27.969Z,1010.88
2018-10-03T04:10:27.956Z,1010.91
2018-10-03T04:11:27.950Z,1010.88
2018-10-03T04:12:27.948Z,1010.91
2018-10-03T04:13:27.947Z,1010.93
2018-10-03T04:14:27.942Z,1010.94
2018-10-03T04:15:27.936Z,1010.99
2018-10-03T04:16:27.947Z,1010.93
2018-10-03T04:17:27.944Z,1010.94
2018-10-03T04:18:27.918Z,1010.95
2018-10-03T04:19:27.916Z,1010.99
2018-10-03T04:20:27.919Z,1010.98
2018-10-03T04:21:27.910Z,1011.01
2018-10-03T04:22:27.908Z,1010.99
2018-10-03T04:23:27.899Z,1011.01
2018-10-03T04:24:27.901Z,1010.99
2018-10-03T04:25:27.889Z,1010.93
2018-10-03T04:26:27.886Z,1010.97
2018-10-03T04:27:27.897Z,1011.08
2018-10-03T04:28:27.880Z,1011.02
2018-10-03T04:29:27.877Z,1010.98
2018-10-03T04:30:27.865Z,1010.99
2018-10-03T04:31:27.863Z,1010.99
2018-10-03T04:32:27.854Z,1011.01
2018-10-03T04:33:27.856Z,1011.00
2018-10-03T04:34:27.854Z,1010.96
2018-10-03T04:35:27.866Z,1010.99
2018-10-03T04:36:27.837Z,1011.02
2018-10-03T04:37:27.840Z,1011.00
2018-10-03T04:38:27.830Z,1011.05
2018-10-03T04:39:27.823Z,1010.99
2018-10-03T04:40:27.828Z,1011.08
2018-10-03T04:41:27.811Z,1011.04
2018-10-03T04:42:27.821Z,1011.07
2018-10-03T04:43:27.826Z,1011.01
2018-10-03T04:44:27.834Z,1011.00
2018-10-03T04:45:27.837Z,1011.05
2018-10-03T04:46:27.799Z,1011.07
2018-10-03T04:47:27.859Z,1011.05
2018-10-03T04:48:27.812Z,1011.01
2018-10-03T04:49:27.785Z,1010.99
2018-10-03T04:50:27.820Z,1011.01
2018-10-03T04:51:27.787Z,1011.00
2018-10-03T04:52:27.804Z,1011.04
2018-10-03T04:53:27.765Z,1011.07
2018-10-03T04:54:27.812Z,1011.09
2018-10-03T04:55:27.778Z,1011.03
2018-10-03T04:56:27.819Z,1011.04
2018-10-03T04:57:27.770Z,1011.08
2018-10-03T04:58:27.770Z,1011.01
2018-10-03T04:59:27.777Z,1010.98
2018-10-03T05:00:27.977Z,1011.03
2018-10-03T05:01:27.732Z,1011.00
2018-10-03T05:02:27.753Z,1011.02
2018-10-03T05:03:27.752Z,1011.05
2018-10-03T05:04:27.713Z,1011.08
2018-10-03T05:05:27.767Z,1011.10
2018-10-03T05:06:27.727Z,1011.13
2018-10-03T05:07:27.728Z,1011.08
2018-10-03T05:08:27.719Z,1011.05
2018-10-03T05:09:27.686Z,1011.06
2018-10-03T05:10:27.741Z,1011.05
2018-10-03T05:11:27.850Z,1011.06
2018-10-03T05:12:27.720Z,1011.08
2018-10-03T05:13:27.697Z,1011.06
2018-10-03T05:14:27.673Z,1011.08
2018-10-03T05:15:27.663Z,1011.09
2018-10-03T05:16:27.680Z,1011.16
2018-10-03T05:17:27.649Z,1011.12
2018-10-03T05:18:27.653Z,1011.15
2018-10-03T05:19:36.299Z,1011.20
2018-10-03T05:21:21.048Z,1011.23
2018-10-03T05:22:21.027Z,1011.27
